Monday, July 23, 2018, 2:05 AM EDT
Back to Local

KMFV, Melfa / Accomack Airport

Location: Melfa, VA, United States Lat: 37.65
Local Time: 2:05 AM EDT ( 6:05 GMT) Lon: -75.767
Time Zone: US/Eastern Elev: 49 ft

Show me the last for .
Show Decoded

2018-07-23 01:35 METAR KMFV 230535Z AUTO 13014G18KT 7SM OVC007 26/25 A2989 RMK AO2 T02610250 =
2018-07-23 01:15 METAR KMFV 230515Z AUTO 14010G17KT 7SM OVC007 26/25 A2990 RMK AO2 T02630252 =
2018-07-23 00:55 METAR KMFV 230455Z AUTO 14011G15KT 7SM OVC007 26/25 A2990 RMK AO2 T02610251
                 402950200 =
2018-07-23 00:35 METAR KMFV 230435Z AUTO 15009KT 7SM OVC007 26/25 A2991 RMK AO2 T02610251 =
2018-07-23 00:15 METAR KMFV 230415Z AUTO 14009G15KT 7SM OVC007 26/25 A2991 RMK AO2 LTG DSNT SE
                 T02610250 =
2018-07-22 23:55 METAR KMFV 230355Z AUTO 14011G15KT 7SM OVC007 26/25 A2991 RMK AO2 LTG DSNT SE
                 T02600250 =
2018-07-22 23:35 METAR KMFV 230335Z AUTO 15012G18KT 7SM OVC007 26/25 A2991 RMK AO2 T02600250 =
2018-07-22 23:15 METAR KMFV 230315Z AUTO 14009KT 7SM OVC009 26/25 A2991 RMK AO2 T02610250 =
2018-07-22 22:55 METAR KMFV 230255Z AUTO 15013G17KT 7SM OVC009 26/25 A2990 RMK AO2 T02630250 =
2018-07-22 22:35 METAR KMFV 230235Z AUTO 15011G18KT 7SM OVC009 26/25 A2990 RMK AO2 T02620250 =
2018-07-22 22:15 METAR KMFV 230215Z AUTO 14012G17KT 7SM OVC009 26/25 A2989 RMK AO2 T02620250 =
2018-07-22 21:55 METAR KMFV 230155Z AUTO 15009G16KT 7SM OVC009 26/25 A2989 RMK AO2 T02620250 =
2018-07-22 21:35 METAR KMFV 230135Z AUTO 15010G21KT 10SM OVC009 26/25 A2988 RMK AO2 T02620250 =
2018-07-22 21:15 METAR KMFV 230115Z AUTO 15012G19KT 7SM OVC009 26/25 A2987 RMK AO2 T02620250 =
2018-07-22 20:55 METAR KMFV 230055Z AUTO 15011G18KT 10SM OVC009 26/25 A2987 RMK AO2 T02630250 =
2018-07-22 20:35 METAR KMFV 230035Z AUTO 15011G21KT 130V210 7SM OVC009 27/25 A2986 RMK AO2
                 T02650250 =
2018-07-22 20:15 METAR KMFV 230015Z AUTO 15013G18KT 7SM OVC009 26/25 A2986 RMK AO2 T02640250 =
2018-07-22 19:55 METAR KMFV 222355Z AUTO 15014G19KT 10SM OVC009 27/25 A2985 RMK AO2 LTG DSNT N
                 T02650250 10295 20245 =
2018-07-22 19:35 METAR KMFV 222335Z AUTO 14012G19KT 10SM OVC011 27/25 A2984 RMK AO2 T02680250 =
2018-07-22 19:15 METAR KMFV 222315Z AUTO 14014G21KT 10SM BKN011 28/25 A2984 RMK AO2 T02750251 =
2018-07-22 18:55 METAR KMFV 222255Z AUTO 15012G21KT 10SM OVC011 27/25 A2984 RMK AO2 LTG DSNT N
                 T02710251 =
2018-07-22 18:35 METAR KMFV 222235Z AUTO 11005KT 10SM OVC011 25/22 A2985 RMK AO2 T02450216 =
2018-07-22 18:15 METAR KMFV 222215Z AUTO 26005KT 10SM OVC011 25/21 A2986 RMK AO2 T02460214 =
2018-07-22 17:55 METAR KMFV 222155Z AUTO 18010G18KT 10SM OVC011 28/25 A2986 RMK AO2 LTG DSNT N
                 AND NW T02750251 =
2018-07-22 17:35 METAR KMFV 222135Z AUTO 16011G18KT 10SM OVC011 28/25 A2986 RMK AO2 LTG DSNT W
                 AND NW T02790252 =
2018-07-22 17:15 METAR KMFV 222115Z AUTO 16014G22KT 130V200 10SM OVC011 28/25 A2984 RMK AO2 LTG
                 DSNT SW AND W T02800252 =
2018-07-22 16:55 METAR KMFV 222055Z AUTO 15014G20KT 10SM OVC013 28/25 A2984 RMK AO2 LTG DSNT W
                 AND NW T02760251 =
2018-07-22 16:35 METAR KMFV 222035Z AUTO 14013G18KT 10SM OVC013 29/25 A2983 RMK AO2 LTG DSNT W
                 T02880252 =
2018-07-22 16:15 METAR KMFV 222015Z AUTO 15014G21KT 10SM OVC015 29/25 A2982 RMK AO2 T02850250 =
2018-07-22 15:55 METAR KMFV 221955Z AUTO 16011G23KT 10SM BKN015 29/25 A2983 RMK AO2 T02900252 =
2018-07-22 15:35 METAR KMFV 221935Z AUTO 16014G22KT 10SM BKN013 29/25 A2982 RMK AO2 T02920252 =
2018-07-22 15:15 METAR KMFV 221915Z AUTO 15013G18KT 10SM OVC015 28/25 A2982 RMK AO2 LTG DSNT N
                 T02840253 =
2018-07-22 14:55 METAR KMFV 221855Z AUTO 16012G23KT 10SM OVC017 29/25 A2982 RMK AO2 T02910250 =
2018-07-22 14:35 METAR KMFV 221835Z AUTO 15018G25KT 10SM BKN017 29/25 A2982 RMK AO2 T02930246 =
2018-07-22 14:15 METAR KMFV 221815Z AUTO 14017G22KT 10SM BKN015 29/25 A2982 RMK AO2 T02910249 =
2018-07-22 13:55 METAR KMFV 221755Z AUTO 15013G22KT 10SM SCT011 BKN120 29/25 A2983 RMK AO2
                 T02860251 10290 20229 =
2018-07-22 13:35 METAR KMFV 221735Z AUTO 13012G16KT 10SM BKN011 OVC120 27/25 A2983 RMK AO2
                 T02670246 =
2018-07-22 13:15 METAR KMFV 221715Z AUTO 14013G16KT 10SM BKN011 OVC120 27/25 A2984 RMK AO2
                 T02670245 =
2018-07-22 12:55 METAR KMFV 221655Z AUTO 13013G19KT 10SM SCT013 SCT019 BKN120 27/25 A2984 RMK AO2
                 T02700245 =
2018-07-22 12:35 METAR KMFV 221635Z AUTO 14015G20KT 10SM BKN015 BKN023 BKN120 28/25 A2984 RMK AO2
                 T02810245 =
2018-07-22 12:15 METAR KMFV 221615Z AUTO 15012G19KT 10SM BKN015 29/24 A2984 RMK AO2 T02860242 =
2018-07-22 11:55 METAR KMFV 221555Z AUTO 16011G15KT 10SM BKN015 BKN025 OVC041 28/25 A2985 RMK AO2
                 T02830246 PNO =
2018-07-22 11:35 METAR KMFV 221535Z AUTO 15011KT 10SM BKN015 OVC020 28/24 A2985 RMK AO2 T02770240
                 =
2018-07-22 11:15 METAR KMFV 221515Z AUTO 16011KT 10SM OVC015 27/24 A2985 RMK AO2 T02740243 =
2018-07-22 10:55 METAR KMFV 221455Z AUTO 15010G15KT 10SM BKN011 OVC017 27/25 A2985 RMK AO2
                 T02690246 =
2018-07-22 10:35 METAR KMFV 221435Z AUTO 15008G15KT 10SM OVC009 27/25 A2985 RMK AO2 T02670246 =
2018-07-22 10:15 METAR KMFV 221415Z AUTO 16009G14KT 10SM OVC009 27/25 A2985 RMK AO2 LTG DSNT N
                 T02660245 =
2018-07-22 09:55 METAR KMFV 221355Z AUTO 15005KT 10SM OVC009 26/24 A2985 RMK AO2 T02560240 =
2018-07-22 09:35 METAR KMFV 221335Z AUTO 12004KT 10SM OVC011 26/23 A2985 RMK AO2 T02550231 =
2018-07-22 09:15 METAR KMFV 221315Z AUTO 13005KT 10SM OVC011 25/23 A2984 RMK AO2 T02450225 =
2018-07-22 08:55 METAR KMFV 221255Z AUTO 12004KT 10SM OVC013 24/22 A2984 RMK AO2 T02400218 =
2018-07-22 08:35 METAR KMFV 221235Z AUTO 13006KT 10SM BKN013 BKN018 24/22 A2984 RMK AO2 T02400217
                 =
2018-07-22 08:15 METAR KMFV 221215Z AUTO 13004KT 10SM SCT015 BKN023 24/22 A2983 RMK AO2 T02360215
                 =
2018-07-22 07:55 METAR KMFV 221155Z AUTO 13003KT 10SM SCT018 OVC023 23/21 A2982 RMK AO2 70124
                 T02270211 10227 20200 =
2018-07-22 07:35 METAR KMFV 221135Z AUTO 13004KT 10SM OVC018 22/21 A2982 RMK AO2 T02190207 =
2018-07-22 07:15 METAR KMFV 221115Z AUTO 13005KT 10SM OVC020 21/21 A2981 RMK AO2 T02140205 =
2018-07-22 06:55 METAR KMFV 221055Z AUTO 15004KT 10SM BKN022 BKN026 BKN032 21/20 A2981 RMK AO2
                 T02100202 =
2018-07-22 06:35 METAR KMFV 221035Z AUTO 14004KT 10SM OVC026 21/20 A2981 RMK AO2 T02080201 =
2018-07-22 06:15 METAR KMFV 221015Z AUTO 18003KT 10SM OVC024 21/20 A2980 RMK AO2 T02050200 =
2018-07-22 05:55 METAR KMFV 220955Z AUTO 17004KT 10SM BKN026 BKN037 20/20 A2980 RMK AO2 T02010196
                 =
2018-07-22 05:35 METAR KMFV 220935Z AUTO 19005KT 10SM SCT011 BKN028 20/20 A2979 RMK AO2 T02010196
                 =
2018-07-22 05:15 METAR KMFV 220915Z AUTO 16003KT 10SM OVC011 20/20 A2979 RMK AO2 T02010196 =
2018-07-22 04:55 METAR KMFV 220855Z AUTO 00000KT 10SM BKN011 20/20 A2979 RMK AO2 T02020195 =
2018-07-22 04:35 METAR KMFV 220835Z AUTO 20004KT 10SM SCT011 21/20 A2978 RMK AO2 T02050196 =
2018-07-22 04:15 METAR KMFV 220815Z AUTO 20005KT 10SM BKN011 21/20 A2978 RMK AO2 T02060196 =
2018-07-22 03:55 METAR KMFV 220755Z AUTO 23005KT 10SM SCT011 21/20 A2977 RMK AO2 T02100195 =
2018-07-22 03:35 METAR KMFV 220735Z AUTO 24008KT 10SM OVC011 21/20 A2977 RMK AO2 T02110196 =
2018-07-22 03:15 METAR KMFV 220715Z AUTO 22010G16KT 10SM OVC011 21/20 A2976 RMK AO2 T02120196 =
2018-07-22 02:55 METAR KMFV 220655Z AUTO 24008KT 10SM OVC011 21/20 A2975 RMK AO2 T02120195 =
2018-07-22 02:35 METAR KMFV 220635Z AUTO 24013G18KT 10SM OVC013 21/20 A2974 RMK AO2 T02140195 =
2018-07-22 02:15 METAR KMFV 220615Z AUTO 24010G15KT 10SM OVC013 21/20 A2974 RMK AO2 T02130196 =

Support USWX by starting your Amazon purchase here.